createdAt,value
2019-01-14T00:10:44.148Z,3.00
2019-01-14T00:15:48.718Z,3.93
2019-01-14T00:21:11.930Z,4.23
2019-01-14T00:26:16.228Z,3.53
2019-01-14T00:36:49.649Z,3.30
2019-01-14T00:41:53.974Z,3.70
2019-01-14T00:47:44.639Z,3.03
2019-01-14T00:52:48.913Z,3.70
2019-01-14T00:57:53.137Z,3.40
2019-01-14T01:02:57.381Z,3.40
2019-01-14T01:08:01.609Z,3.20
2019-01-14T01:13:05.863Z,2.90
2019-01-14T01:18:29.157Z,2.93
2019-01-14T01:23:33.376Z,1.90
2019-01-14T01:28:37.603Z,2.30
2019-01-14T01:34:01.211Z,2.70
2019-01-14T01:39:46.902Z,2.33
2019-01-14T01:50:13.200Z,2.13
2019-01-14T01:55:29.356Z,2.03
2019-01-14T02:11:12.880Z,1.03
2019-01-14T02:21:47.576Z,1.10
2019-01-14T02:26:51.805Z,1.00
2019-01-14T02:32:15.096Z,1.57
2019-01-14T02:37:19.315Z,0.73
2019-01-14T02:42:23.564Z,0.80
2019-01-14T02:52:56.911Z,0.80
2019-01-14T03:03:10.980Z,1.27
2019-01-14T03:08:34.597Z,1.30
2019-01-14T03:13:38.824Z,2.10
2019-01-14T03:18:43.050Z,2.97
2019-01-14T03:23:47.628Z,3.63
2019-01-14T03:28:51.880Z,4.70
2019-01-14T03:33:56.108Z,3.80
2019-01-14T03:39:00.334Z,4.00
2019-01-14T03:49:35.438Z,4.00
2019-01-14T03:54:51.699Z,4.50
2019-01-14T04:00:14.859Z,4.20
2019-01-14T04:05:19.496Z,4.47
2019-01-14T04:10:42.789Z,4.60
2019-01-14T04:20:57.482Z,4.37
2019-01-14T04:26:02.041Z,3.73
2019-01-14T04:31:25.461Z,3.87
2019-01-14T04:36:29.686Z,3.60
2019-01-14T04:41:33.916Z,3.03
2019-01-14T04:52:07.157Z,2.63
2019-01-14T04:57:30.478Z,3.37
2019-01-14T05:13:14.203Z,3.73
2019-01-14T05:18:18.437Z,3.73
2019-01-14T05:23:41.767Z,3.70
2019-01-14T05:28:46.002Z,4.07
2019-01-14T05:34:09.677Z,4.03
2019-01-14T05:39:14.036Z,3.87
2019-01-14T05:44:18.221Z,5.07
2019-01-14T05:49:22.783Z,3.10
2019-01-14T05:59:50.768Z,3.30
2019-01-14T06:05:35.265Z,3.43
2019-01-14T06:11:20.156Z,3.97
2019-01-14T06:28:11.555Z,4.33
2019-01-14T06:33:55.279Z,4.50
2019-01-14T06:57:14.817Z,4.27
2019-01-14T07:02:31.429Z,4.20
2019-01-14T07:07:47.950Z,4.00
2019-01-14T07:13:33.152Z,4.13
2019-01-14T07:19:18.336Z,3.67
2019-01-14T07:36:44.567Z,3.30
2019-01-14T07:42:15.009Z,4.17
2019-01-14T07:47:59.510Z,5.70
2019-01-14T07:59:35.011Z,5.37
2019-01-14T08:04:53.297Z,5.23
2019-01-14T08:10:10.079Z,5.10
2019-01-14T08:15:28.201Z,5.47
2019-01-14T08:20:45.067Z,4.67
2019-01-14T08:26:01.541Z,0.80
2019-01-14T08:31:19.330Z,0.47
2019-01-14T08:36:37.384Z,0.43
2019-01-14T08:41:58.829Z,0.43
2019-01-14T08:47:15.576Z,0.80
2019-01-14T08:52:33.201Z,0.40
2019-01-14T08:57:54.441Z,0.67
2019-01-14T09:08:59.929Z,0.67
2019-01-14T09:14:17.068Z,0.70
2019-01-14T09:19:35.024Z,0.50
2019-01-14T09:24:51.769Z,0.70
2019-01-14T09:30:09.307Z,0.87
2019-01-14T09:35:27.267Z,1.30
2019-01-14T09:41:11.622Z,1.00
2019-01-14T09:52:47.844Z,0.80
2019-01-14T10:04:25.500Z,1.53
2019-01-14T10:09:45.267Z,1.17
2019-01-14T10:15:02.709Z,0.97
2019-01-14T10:20:21.109Z,1.73
2019-01-14T10:25:38.406Z,1.20
2019-01-14T10:30:55.949Z,1.60
2019-01-14T10:36:15.377Z,1.13
2019-01-14T10:41:32.988Z,1.37
2019-01-14T10:47:02.244Z,1.40
2019-01-14T10:52:09.399Z,1.20
2019-01-14T10:57:18.711Z,1.40
2019-01-14T11:02:26.877Z,1.50
2019-01-14T11:07:32.893Z,1.63
2019-01-14T11:12:40.050Z,1.57
2019-01-14T11:17:48.581Z,2.27
2019-01-14T11:22:59.781Z,1.60
2019-01-14T11:28:09.538Z,1.50
2019-01-14T11:33:17.762Z,1.93
2019-01-14T11:38:44.174Z,1.80
2019-01-14T11:43:50.592Z,1.80
2019-01-14T11:48:58.219Z,1.70
2019-01-14T11:54:06.128Z,1.80
2019-01-14T11:59:12.923Z,2.00
2019-01-14T12:04:19.458Z,2.17
2019-01-14T12:09:30.020Z,1.70
2019-01-14T12:14:42.302Z,1.60
2019-01-14T12:19:50.689Z,1.33
2019-01-14T12:24:57.212Z,1.40
2019-01-14T12:30:04.440Z,1.57
2019-01-14T12:35:12.398Z,2.10
2019-01-14T12:40:24.039Z,1.60
2019-01-14T12:45:29.848Z,1.57
2019-01-14T12:50:36.739Z,2.00
2019-01-14T12:55:42.878Z,1.90
2019-01-14T13:00:49.023Z,1.70
2019-01-14T13:05:55.233Z,2.30
2019-01-14T13:11:01.614Z,2.00
2019-01-14T13:16:12.399Z,2.03
2019-01-14T13:21:19.668Z,1.90
2019-01-14T13:26:26.079Z,2.17
2019-01-14T13:31:35.820Z,2.50
2019-01-14T13:36:42.126Z,2.67
2019-01-14T13:41:51.475Z,2.53
2019-01-14T13:46:58.314Z,2.10
2019-01-14T13:52:04.649Z,1.87
2019-01-14T13:57:17.108Z,2.10
2019-01-14T14:08:12.608Z,2.17
2019-01-14T14:13:35.932Z,2.00
2019-01-14T14:24:23.079Z,1.90
2019-01-14T14:29:27.760Z,2.33
2019-01-14T14:40:01.773Z,2.00
2019-01-14T14:45:45.969Z,2.03
2019-01-14T14:50:50.245Z,2.17
2019-01-14T15:01:42.641Z,2.17
2019-01-14T15:07:05.944Z,2.10
2019-01-14T15:12:29.260Z,2.60
2019-01-14T15:17:33.865Z,2.33
2019-01-14T15:22:38.139Z,1.57
2019-01-14T15:38:22.292Z,1.70
2019-01-14T15:48:36.052Z,3.77
2019-01-14T15:53:40.291Z,1.33
2019-01-14T15:58:44.516Z,1.87
2019-01-14T16:04:07.884Z,2.53
2019-01-14T16:09:12.119Z,2.60
2019-01-14T16:14:16.346Z,3.57
2019-01-14T16:24:30.652Z,2.70
2019-01-14T16:29:34.945Z,3.90
2019-01-14T16:34:39.179Z,2.43
2019-01-14T16:39:43.719Z,3.20
2019-01-14T16:44:48.005Z,3.20
2019-01-14T16:55:02.101Z,3.57
2019-01-14T17:00:25.410Z,3.80
2019-01-14T17:05:48.707Z,4.30
2019-01-14T17:11:12.062Z,3.70
2019-01-14T17:16:35.368Z,4.03
2019-01-14T17:21:39.946Z,3.73
2019-01-14T17:26:44.272Z,6.57
2019-01-14T17:32:07.577Z,3.80
2019-01-14T17:37:11.807Z,4.27
2019-01-14T17:42:35.527Z,3.30
2019-01-14T17:47:58.841Z,3.60
2019-01-14T17:58:13.267Z,3.23
2019-01-14T18:03:17.593Z,2.50
2019-01-14T18:24:10.906Z,3.80
2019-01-14T18:29:26.702Z,2.50
2019-01-14T18:34:30.953Z,2.93
2019-01-14T18:39:35.198Z,2.37
2019-01-14T18:44:39.439Z,3.10
2019-01-14T18:49:43.670Z,3.17
2019-01-14T18:54:49.876Z,3.13
2019-01-14T19:00:13.329Z,3.07
2019-01-14T19:05:17.603Z,2.43
2019-01-14T19:10:22.336Z,2.63
2019-01-14T19:15:45.686Z,3.30
2019-01-14T19:26:51.891Z,5.27
2019-01-14T19:32:08.177Z,4.73
2019-01-14T19:37:13.046Z,4.43
2019-01-14T19:42:17.504Z,3.80
2019-01-14T19:47:23.020Z,3.53
2019-01-14T19:52:27.422Z,2.80
2019-01-14T19:57:31.753Z,3.47
2019-01-14T20:02:36.008Z,4.60
2019-01-14T20:18:38.280Z,4.73
2019-01-14T20:24:01.602Z,4.43
2019-01-14T20:29:05.896Z,3.27
2019-01-14T20:34:22.224Z,2.90
2019-01-14T20:39:26.478Z,6.40
2019-01-14T20:49:40.551Z,4.23
2019-01-14T21:00:34.209Z,4.50
2019-01-14T21:05:38.428Z,4.83
2019-01-14T21:26:33.322Z,7.43
2019-01-14T21:31:56.638Z,8.60
2019-01-14T21:37:01.025Z,6.93
2019-01-14T21:42:24.343Z,8.57
2019-01-14T21:58:47.472Z,7.60
2019-01-14T22:03:51.929Z,6.90
2019-01-14T22:09:35.599Z,7.07
2019-01-14T22:14:39.858Z,6.47
2019-01-14T22:19:45.426Z,6.70
2019-01-14T22:24:50.478Z,6.47
2019-01-14T22:30:15.924Z,7.23
2019-01-14T22:35:39.262Z,7.63
2019-01-14T22:40:54.949Z,7.47
2019-01-14T22:51:49.743Z,7.90
2019-01-14T22:57:13.055Z,6.83
2019-01-14T23:17:47.533Z,11.23
2019-01-14T23:22:52.412Z,7.70
2019-01-14T23:28:15.729Z,6.67
2019-01-14T23:33:19.982Z,4.77
2019-01-14T23:38:43.383Z,5.17
2019-01-14T23:48:57.452Z,4.30
2019-01-14T23:54:20.754Z,4.53
2019-01-14T23:59:25.012Z,4.50
